Time;durP1;ratioP1;P1;durP2;ratioP2;P2;SDS_P1;SDS_P2;PMS_P1;PMS_P2;Temp;Humidity;BMP_temperature;BMP_pressure;BME280_temperature;BME280_humidity;BME280_pressure;Samples;Min_cycle;Max_cycle;Signal;HPM_P1;HPM_P2
2022/08/24 00:00:12;;;;;;;20.63;6.22;;;;;;;27.91;65.08;100817.28;5018980;28;20038;-83
2022/08/24 00:02:38;;;;;;;18.05;5.65;;;;;;;27.86;65.50;100794.13;5010923;28;20042;-82
2022/08/24 00:05:05;;;;;;;15.63;6.03;;;;;;;27.92;65.31;100804.75;5009046;28;20030;-83
2022/08/24 00:07:30;;;;;;;18.05;6.05;;;;;;;27.92;65.27;100815.47;5010189;28;20499;-84
2022/08/24 00:09:57;;;;;;;21.15;6.28;;;;;;;27.92;65.22;100824.44;5008250;28;20076;-83
2022/08/24 00:12:22;;;;;;;22.15;6.63;;;;;;;27.89;65.30;100818.22;5009736;28;20057;-83
2022/08/24 00:14:48;;;;;;;24.10;6.25;;;;;;;27.86;65.58;100811.13;5010343;28;20450;-83
2022/08/24 00:17:14;;;;;;;22.40;6.13;;;;;;;27.85;65.63;100806.63;4991071;28;20041;-84
2022/08/24 00:19:41;;;;;;;24.17;6.15;;;;;;;27.86;65.59;100796.81;4992716;28;20050;-83
2022/08/24 00:22:08;;;;;;;23.75;6.68;;;;;;;27.89;65.62;100808.38;5009546;28;20182;-85
2022/08/24 00:24:33;;;;;;;25.95;6.90;;;;;;;27.89;66.00;100804.81;5010958;28;20044;-84
2022/08/24 00:26:59;;;;;;;27.00;6.65;;;;;;;27.60;65.89;100745.34;5004320;28;20480;-84
2022/08/24 00:29:25;;;;;;;29.45;6.63;;;;;;;27.79;66.18;100775.44;5008994;28;20065;-84
2022/08/24 00:31:51;;;;;;;29.92;6.75;;;;;;;27.91;66.26;100793.13;5007666;28;20062;-83
2022/08/24 00:34:17;;;;;;;30.65;6.50;;;;;;;27.85;66.62;100784.28;5009519;28;20040;-82
2022/08/24 00:36:44;;;;;;;33.03;6.70;;;;;;;27.52;66.74;100730.28;5010040;28;20026;-83
2022/08/24 00:39:10;;;;;;;33.03;7.00;;;;;;;27.46;66.48;100708.94;5007900;28;20041;-83
2022/08/24 00:41:40;;;;;;;32.65;7.22;;;;;;;27.81;67.04;100759.28;5013394;28;20461;-84
2022/08/24 00:44:06;;;;;;;34.03;7.07;;;;;;;27.74;67.50;100763.88;5011024;28;20038;-82
2022/08/24 00:46:42;;;;;;;31.08;7.45;;;;;;;27.81;67.21;100759.28;5008678;28;20044;-83
2022/08/24 00:49:23;;;;;;;33.13;7.22;;;;;;;27.76;67.60;100769.22;5003027;28;20036;-84
2022/08/24 00:51:58;;;;;;;37.38;7.40;;;;;;;27.80;67.41;100769.13;5005580;28;20074;-84
2022/08/24 00:54:25;;;;;;;39.67;7.57;;;;;;;27.76;67.26;100763.84;5026157;28;20099;-84
2022/08/24 00:56:57;;;;;;;34.88;7.35;;;;;;;27.84;67.26;100763.72;5008814;28;20030;-83
2022/08/24 00:59:27;;;;;;;37.75;7.13;;;;;;;27.87;66.87;100763.69;4998691;28;20407;-83
2022/08/24 01:01:53;;;;;;;37.42;7.10;;;;;;;27.86;66.74;100760.13;5025094;28;20570;-84
2022/08/24 01:04:27;;;;;;;28.25;7.10;;;;;;;27.79;67.02;100766.47;5007900;28;20033;-83
2022/08/24 01:06:55;;;;;;;35.40;7.60;;;;;;;27.73;66.92;100755.84;5007838;28;20038;-83
2022/08/24 01:09:21;;;;;;;29.73;7.00;;;;;;;27.74;67.00;100758.50;5008546;28;20018;-82
2022/08/24 01:11:48;;;;;;;30.85;7.00;;;;;;;27.73;67.00;100758.50;5009534;28;20026;-82
2022/08/24 01:14:13;;;;;;;33.40;6.88;;;;;;;27.60;67.04;100731.00;5006828;28;20075;-82
2022/08/24 01:19:26;;;;;;;33.30;7.70;;;;;;;27.73;66.96;100762.09;5008140;28;20130;-85
2022/08/24 01:22:10;;;;;;;34.38;7.03;;;;;;;27.73;67.19;100755.84;5002212;28;20508;-83
2022/08/24 01:24:36;;;;;;;35.70;7.20;;;;;;;27.60;67.05;100729.25;5007892;28;20412;-84
2022/08/24 01:27:02;;;;;;;38.30;8.00;;;;;;;27.72;66.73;100740.66;5008926;28;20034;-85
2022/08/24 01:29:30;;;;;;;34.45;6.95;;;;;;;27.78;66.52;100746.81;5023494;28;20038;-83
2022/08/24 01:31:57;;;;;;;34.35;7.43;;;;;;;27.65;66.55;100720.22;5007637;28;20514;-83
2022/08/24 01:34:23;;;;;;;32.97;7.38;;;;;;;27.76;66.36;100732.53;5008467;28;20025;-83
2022/08/24 01:36:53;;;;;;;30.23;7.60;;;;;;;27.76;66.25;100734.34;4998659;28;20084;-82
2022/08/24 01:39:23;;;;;;;25.70;7.60;;;;;;;27.68;66.37;100734.44;5005181;28;20576;-83
2022/08/24 01:41:50;;;;;;;29.45;6.95;;;;;;;27.75;65.85;100722.72;5010168;28;20475;-83
2022/08/24 01:44:16;;;;;;;28.88;8.20;;;;;;;27.71;66.18;100739.78;5011226;28;20026;-83
2022/08/24 01:46:44;;;;;;;30.80;7.72;;;;;;;27.74;66.00;100745.09;5012476;28;20025;-83
2022/08/24 01:49:10;;;;;;;31.40;7.85;;;;;;;27.80;65.72;100760.19;5012405;28;20072;-82
2022/08/24 01:51:35;;;;;;;31.80;8.23;;;;;;;27.51;65.85;100721.31;5012548;28;20460;-83
2022/08/24 01:54:02;;;;;;;27.35;7.40;;;;;;;27.77;65.51;100766.50;5002705;28;20041;-83
2022/08/24 01:56:29;;;;;;;30.58;7.43;;;;;;;27.76;65.51;100777.25;5007468;28;20037;-83
2022/08/24 01:58:55;;;;;;;26.85;8.20;;;;;;;27.78;65.50;100780.81;5001278;28;20052;-83
2022/08/24 02:01:21;;;;;;;26.38;7.78;;;;;;;27.55;66.08;100770.44;5012720;28;20477;-82
2022/08/24 02:03:46;;;;;;;27.63;7.63;;;;;;;27.62;65.77;100739.91;5011608;28;20064;-83
2022/08/24 02:06:13;;;;;;;21.70;7.80;;;;;;;27.62;65.66;100734.56;5009685;28;20018;-84
2022/08/24 02:08:39;;;;;;;25.90;7.95;;;;;;;27.62;65.58;100742.59;5009931;28;20035;-83
2022/08/24 02:11:07;;;;;;;28.55;8.48;;;;;;;27.79;65.53;100753.03;5011142;28;20077;-82
2022/08/24 02:13:34;;;;;;;31.27;8.15;;;;;;;27.31;65.72;100683.25;5009695;28;20034;-82
2022/08/24 02:16:00;;;;;;;27.23;8.20;;;;;;;27.67;65.26;100726.44;5009757;28;20026;-82
2022/08/24 02:18:26;;;;;;;25.90;7.20;;;;;;;27.67;65.29;100732.69;5012426;28;20112;-83
2022/08/24 02:20:52;;;;;;;24.58;7.55;;;;;;;27.46;65.68;100700.88;5011843;28;20117;-83
2022/08/24 02:23:19;;;;;;;25.98;7.80;;;;;;;27.40;66.31;100721.50;5011519;28;20029;-82
2022/08/24 02:25:45;;;;;;;21.45;7.78;;;;;;;27.38;66.01;100720.63;5011318;28;20036;-82
2022/08/24 02:28:10;;;;;;;24.92;7.78;;;;;;;27.36;65.71;100701.00;5011456;28;20103;-83
2022/08/24 02:30:36;;;;;;;26.30;8.00;;;;;;;27.58;65.57;100728.38;5012299;28;20483;-82
2022/08/24 02:33:02;;;;;;;24.55;7.40;;;;;;;27.26;66.62;100723.50;5011840;28;20476;-83
2022/08/24 02:35:29;;;;;;;30.67;7.72;;;;;;;27.26;66.71;100734.25;5012370;28;20034;-83
2022/08/24 02:37:55;;;;;;;22.10;8.30;;;;;;;26.99;67.26;100698.88;5012393;28;20026;-83
2022/08/24 02:40:21;;;;;;;25.60;7.45;;;;;;;27.34;66.47;100728.78;5005518;28;20072;-82
2022/08/24 02:42:47;;;;;;;19.70;7.60;;;;;;;27.14;66.78;100707.63;5013167;28;20034;-82
2022/08/24 02:45:13;;;;;;;20.73;7.28;;;;;;;27.16;66.86;100708.47;5028177;28;20469;-82
2022/08/24 02:47:38;;;;;;;21.92;7.88;;;;;;;27.25;66.94;100699.44;5011294;28;20034;-83
2022/08/24 02:50:05;;;;;;;20.92;7.55;;;;;;;27.21;66.62;100690.50;5014375;28;20053;-84
2022/08/24 02:52:31;;;;;;;25.80;8.65;;;;;;;27.20;66.86;100651.22;5020073;28;20026;-83
2022/08/24 02:54:56;;;;;;;28.08;8.02;;;;;;;27.24;66.76;100660.09;5011765;28;20448;-83
2022/08/24 02:57:22;;;;;;;25.67;8.68;;;;;;;27.35;66.02;100687.66;5011422;28;20022;-83
2022/08/24 02:59:48;;;;;;;25.90;8.07;;;;;;;27.26;66.43;100688.66;5012238;28;20043;-83
2022/08/24 03:02:13;;;;;;;24.08;7.75;;;;;;;27.40;66.16;100692.00;5007620;28;20476;-83
2022/08/24 03:04:39;;;;;;;27.33;8.40;;;;;;;27.41;66.16;100690.19;4997392;28;20029;-82
2022/08/24 03:07:05;;;;;;;30.15;7.85;;;;;;;27.30;66.24;100684.13;5011219;28;20112;-83
2022/08/24 03:09:30;;;;;;;25.75;8.23;;;;;;;27.40;65.93;100701.84;5011702;28;20026;-83
2022/08/24 03:11:56;;;;;;;24.38;7.43;;;;;;;27.22;66.72;100703.06;5009979;28;20033;-83
2022/08/24 03:14:22;;;;;;;31.02;8.48;;;;;;;27.20;66.97;100700.34;5010945;28;20030;-82
2022/08/24 03:16:48;;;;;;;22.55;7.70;;;;;;;27.06;66.77;100667.50;5009984;28;20041;-82
2022/08/24 03:19:14;;;;;;;27.00;8.15;;;;;;;27.16;66.72;100709.34;5010235;28;20053;-82
2022/08/24 03:21:40;;;;;;;25.58;7.93;;;;;;;27.31;66.64;100718.09;5022022;28;20045;-83
2022/08/24 03:24:06;;;;;;;24.35;8.35;;;;;;;27.24;66.44;100703.88;5006742;28;20034;-83
2022/08/24 03:26:32;;;;;;;28.70;7.70;;;;;;;27.39;66.14;100729.59;4995325;28;20057;-83
2022/08/24 03:28:59;;;;;;;24.50;8.02;;;;;;;27.48;66.29;100736.59;5010696;28;20034;-83
2022/08/24 03:31:25;;;;;;;24.02;7.78;;;;;;;27.50;65.76;100759.81;5007748;28;20445;-82
2022/08/24 03:33:51;;;;;;;25.13;8.50;;;;;;;27.39;66.25;100767.16;5003465;28;20105;-82
2022/08/24 03:36:17;;;;;;;22.92;7.88;;;;;;;27.49;65.86;100771.44;5006799;28;20112;-83
2022/08/24 03:38:43;;;;;;;24.02;8.05;;;;;;;27.59;65.55;100791.84;5007878;28;20113;-83
2022/08/24 03:41:09;;;;;;;32.42;8.45;;;;;;;27.63;65.42;100784.63;5015540;28;20025;-83
2022/08/24 03:43:46;;;;;;;22.70;8.27;;;;;;;27.47;65.72;100742.88;5009900;28;20140;-85
2022/08/24 03:46:27;;;;;;;26.88;8.00;;;;;;;27.61;65.65;100770.34;5007526;28;20030;-84
2022/08/24 03:48:54;;;;;;;24.25;8.20;;;;;;;27.65;65.38;100777.44;5005473;28;20039;-84
2022/08/24 03:51:24;;;;;;;22.90;7.75;;;;;;;27.52;65.68;100775.88;5038913;28;20029;-84
2022/08/24 03:53:51;;;;;;;27.77;9.10;;;;;;;27.42;66.14;100767.09;5018145;28;20037;-85
2022/08/24 03:56:17;;;;;;;23.75;8.07;;;;;;;27.59;66.04;100786.47;5011184;28;20038;-83
2022/08/24 03:58:43;;;;;;;20.80;7.82;;;;;;;27.41;66.37;100784.06;5010475;28;20053;-83
2022/08/24 04:01:10;;;;;;;23.00;7.70;;;;;;;27.51;66.19;100808.97;5011549;28;20060;-83
2022/08/24 04:03:41;;;;;;;26.98;8.15;;;;;;;27.44;66.36;100793.88;5010022;28;20038;-83
2022/08/24 04:06:07;;;;;;;28.00;8.93;;;;;;;27.36;65.97;100792.19;5021369;28;20061;-83
2022/08/24 04:08:34;;;;;;;31.25;7.97;;;;;;;27.44;65.88;100793.88;4997717;28;20022;-83
2022/08/24 04:11:00;;;;;;;27.48;8.07;;;;;;;27.63;65.99;100824.88;5009812;28;20088;-84
2022/08/24 04:13:30;;;;;;;27.35;9.20;;;;;;;27.57;65.68;100827.66;5009768;28;20033;-83
2022/08/24 04:15:57;;;;;;;28.67;8.80;;;;;;;27.63;65.45;100842.78;5003754;28;20476;-83
2022/08/24 04:18:22;;;;;;;22.98;8.68;;;;;;;27.45;65.78;100835.88;5008299;28;20144;-83
2022/08/24 04:20:49;;;;;;;29.60;8.52;;;;;;;27.66;65.54;100874.91;5005489;28;20117;-83
2022/08/24 04:23:15;;;;;;;25.20;8.77;;;;;;;27.68;65.40;100878.47;5008792;28;20072;-84
2022/08/24 04:25:45;;;;;;;30.15;8.57;;;;;;;27.68;65.55;100875.78;4998906;28;20058;-84
2022/08/24 04:28:13;;;;;;;21.20;8.10;;;;;;;27.68;65.28;100871.28;4999372;28;20483;-82
2022/08/24 04:30:43;;;;;;;23.38;7.72;;;;;;;27.67;65.41;100874.91;4993119;28;20458;-83
2022/08/24 04:33:10;;;;;;;26.10;8.98;;;;;;;27.70;65.21;100876.63;5003212;28;20525;-84
2022/08/24 04:35:41;;;;;;;21.70;7.75;;;;;;;27.67;65.10;100879.38;5009210;28;20026;-84
2022/08/24 04:38:08;;;;;;;27.50;8.15;;;;;;;27.53;65.32;100863.47;5004291;28;20484;-85
2022/08/24 04:40:34;;;;;;;27.00;8.07;;;;;;;27.50;65.00;100850.13;5003450;28;20029;-84
2022/08/24 04:43:00;;;;;;;30.70;7.85;;;;;;;27.63;65.34;100866.94;5002604;28;20025;-84
2022/08/24 04:45:27;;;;;;;20.13;7.22;;;;;;;27.45;65.23;100842.13;5008245;28;20029;-84
2022/08/24 04:47:53;;;;;;;25.50;9.52;;;;;;;27.63;65.32;100867.81;5000202;28;20025;-85
2022/08/24 04:50:21;;;;;;;27.63;8.52;;;;;;;27.54;65.52;100858.09;5004547;28;20056;-83
2022/08/24 04:52:46;;;;;;;31.13;8.85;;;;;;;27.67;65.31;100876.72;5007223;28;20026;-84
2022/08/24 04:55:12;;;;;;;37.50;9.02;;;;;;;27.64;65.61;100871.38;5008306;28;20036;-83
2022/08/24 04:57:38;;;;;;;26.27;8.57;;;;;;;27.65;65.69;100868.66;5005231;28;20037;-83
2022/08/24 05:00:07;;;;;;;30.25;8.80;;;;;;;27.64;65.38;100864.19;5018698;28;20033;-82
2022/08/24 05:02:33;;;;;;;29.40;8.40;;;;;;;27.60;65.76;100883.94;5005530;28;20033;-83
2022/08/24 05:04:58;;;;;;;30.23;8.77;;;;;;;27.60;65.60;100890.22;5009034;28;20030;-81
2022/08/24 05:07:24;;;;;;;31.95;8.57;;;;;;;27.65;65.43;100903.53;5009214;28;20512;-81
2022/08/24 05:09:50;;;;;;;30.35;8.32;;;;;;;27.66;65.40;100901.75;5005523;28;20660;-82
2022/08/24 05:12:16;;;;;;;32.33;8.63;;;;;;;27.60;65.32;100886.59;5006518;28;20049;-82
2022/08/24 05:14:41;;;;;;;30.65;8.65;;;;;;;27.60;65.46;100878.56;5009983;28;20026;-81
2022/08/24 05:17:07;;;;;;;33.55;9.05;;;;;;;27.66;65.47;100886.53;5015383;28;20057;-86
2022/08/24 05:19:33;;;;;;;32.25;9.10;;;;;;;27.23;65.47;100804.00;5017630;28;20046;-85
2022/08/24 05:21:59;;;;;;;28.48;8.02;;;;;;;27.49;65.48;100842.97;5016496;28;20037;-85
2022/08/24 05:24:25;;;;;;;38.08;9.27;;;;;;;27.42;65.61;100842.19;5021099;28;20037;-85
2022/08/24 05:26:51;;;;;;;30.75;9.55;;;;;;;27.38;65.34;100838.66;5005599;28;20472;-84
2022/08/24 05:29:37;;;;;;;;;;;;;;;;;;;;;
2022/08/24 05:32:10;;;;;;;27.67;8.90;;;;;;;27.15;65.45;100813.91;5008331;28;20514;-86
2022/08/24 05:34:53;;;;;;;;;;;;;;;;;;;;;
2022/08/24 05:37:25;;;;;;;29.58;8.65;;;;;;;27.66;65.59;100912.47;5014257;28;20021;-84
2022/08/24 05:39:52;;;;;;;32.08;8.52;;;;;;;27.29;65.37;100873.66;4993389;28;20056;-84
2022/08/24 05:42:23;;;;;;;32.85;8.18;;;;;;;27.67;65.48;100941.09;5007446;28;20081;-88
2022/08/24 05:44:50;;;;;;;29.10;8.55;;;;;;;27.64;65.46;100950.06;4996261;28;20100;-86
2022/08/24 05:47:25;;;;;;;30.10;8.55;;;;;;;27.12;65.30;100854.19;5021339;28;20026;-87
2022/08/24 05:49:57;;;;;;;28.65;7.65;;;;;;;27.37;65.24;100903.06;5011178;28;20120;-85
2022/08/24 05:52:24;;;;;;;24.08;8.75;;;;;;;27.54;65.27;100935.00;4996308;28;20025;-86
2022/08/24 05:55:00;;;;;;;26.95;8.30;;;;;;;27.31;65.42;100897.78;5011272;28;20095;-87
2022/08/24 05:57:31;;;;;;;29.55;8.23;;;;;;;27.37;65.43;100911.97;4996205;28;20029;-86
2022/08/24 05:59:57;;;;;;;29.70;8.18;;;;;;;27.28;65.47;100879.03;5029198;28;20057;-86
2022/08/24 06:02:23;;;;;;;30.58;8.40;;;;;;;27.39;65.56;100890.50;5011483;28;20022;-83
2022/08/24 06:04:48;;;;;;;25.58;7.88;;;;;;;27.53;65.34;100907.28;5000644;28;21707;-83
2022/08/24 06:07:18;;;;;;;33.72;8.13;;;;;;;27.58;65.43;100889.34;5003052;28;20084;-84
2022/08/24 06:09:46;;;;;;;33.38;8.55;;;;;;;27.32;65.65;100835.16;5007008;28;20038;-84
2022/08/24 06:12:12;;;;;;;33.08;8.88;;;;;;;27.57;65.70;100876.81;5013591;28;20087;-84
2022/08/24 06:14:38;;;;;;;34.65;8.32;;;;;;;27.30;66.16;100845.03;5015186;28;20030;-85
2022/08/24 06:17:06;;;;;;;41.85;9.95;;;;;;;27.32;66.07;100856.63;5007771;28;20087;-82
2022/08/24 06:19:32;;;;;;;34.70;8.70;;;;;;;27.60;65.83;100914.34;5008630;28;20679;-86
2022/08/24 06:22:39;;;;;;;38.97;8.50;;;;;;;27.59;65.66;100928.66;5007273;28;20339;-85
2022/08/24 06:27:54;;;;;;;28.92;8.20;;;;;;;27.05;65.44;100857.84;5023270;28;20113;-84
2022/08/24 06:30:27;;;;;;;38.75;8.82;;;;;;;27.42;65.89;100925.31;5022574;28;20034;-86
2022/08/24 06:35:58;;;;;;;;;;;;;;;;;;;;;
2022/08/24 06:38:47;;;;;;;;;;;;;;;;;;;;;
2022/08/24 06:41:17;;;;;;;29.60;8.38;;;;;;;27.26;65.63;100931.78;5004722;28;20034;-82
2022/08/24 06:44:05;;;;;;;25.85;7.85;;;;;;;27.61;65.48;100990.34;5021411;28;20027;-83
2022/08/24 06:46:50;;;;;;;28.48;8.60;;;;;;;27.35;65.36;100954.03;5005507;28;20022;-82
2022/08/24 06:49:32;;;;;;;27.65;7.78;;;;;;;27.46;65.58;100988.75;5011737;28;20099;-80
2022/08/24 06:52:00;;;;;;;29.95;7.80;;;;;;;27.02;65.20;100878.41;5008622;28;20058;-79
2022/08/24 06:54:26;;;;;;;30.65;8.02;;;;;;;27.16;66.09;100920.25;5028277;28;20026;-81
2022/08/24 06:56:51;;;;;;;68.15;9.98;;;;;;;27.55;65.79;100977.00;5007154;28;20392;-81
2022/08/24 06:59:17;;;;;;;45.92;8.68;;;;;;;27.48;65.50;100964.59;5020557;28;20502;-80
2022/08/24 07:01:43;;;;;;;33.72;8.70;;;;;;;27.55;65.31;100979.69;5011899;28;20044;-80
2022/08/24 07:04:09;;;;;;;35.83;8.43;;;;;;;27.57;65.01;100977.88;5009099;28;20030;-80
2022/08/24 07:06:35;;;;;;;36.78;8.73;;;;;;;27.49;64.76;100955.63;4998820;28;20072;-80
2022/08/24 07:09:20;;;;;;;;;;;;;;;;;;;;;
2022/08/24 07:12:10;;;;;;;33.30;9.13;;;;;;;27.56;64.65;100965.41;5011031;28;20044;-83
2022/08/24 07:14:54;;;;;;;26.42;8.48;;;;;;;27.57;64.66;100978.75;5008995;28;20096;-83
2022/08/24 07:17:30;;;;;;;27.40;8.35;;;;;;;27.58;64.33;100980.56;5025109;28;20487;-82
2022/08/24 07:20:11;;;;;;;22.58;8.38;;;;;;;27.09;64.79;100910.50;5010801;28;20068;-82
2022/08/24 07:22:46;;;;;;;26.55;8.20;;;;;;;27.14;64.47;100914.03;5006733;28;20038;-82
2022/08/24 07:25:24;;;;;;;;;;;;;;;;;;;;;
2022/08/24 07:27:54;;;;;;;24.35;7.45;;;;;;;27.54;64.22;100951.13;5011336;28;20510;-83
2022/08/24 07:30:24;;;;;;;21.98;7.28;;;;;;;26.75;65.23;100825.16;4993938;28;20510;-82
2022/08/24 07:32:56;;;;;;;25.08;7.85;;;;;;;26.74;65.42;100826.06;4994839;28;20034;-82
2022/08/24 07:35:33;;;;;;;23.50;7.57;;;;;;;26.87;66.05;100885.75;4993769;28;20026;-83
2022/08/24 07:38:08;;;;;;;28.40;9.20;;;;;;;26.80;65.45;100868.88;5026304;28;20022;-83
2022/08/24 07:40:41;;;;;;;25.17;7.95;;;;;;;26.86;64.92;100884.88;4995502;28;20034;-83
2022/08/24 07:43:09;;;;;;;28.35;8.25;;;;;;;26.92;64.60;100891.94;5017174;28;20089;-82
2022/08/24 07:45:34;;;;;;;26.35;8.35;;;;;;;27.19;64.36;100925.56;5014462;28;20029;-82
2022/08/24 07:48:01;;;;;;;24.85;8.85;;;;;;;27.52;64.27;100972.59;5028021;28;20030;-80
2022/08/24 07:50:28;;;;;;;25.27;8.55;;;;;;;27.34;65.25;100957.59;5033921;28;20171;-82
2022/08/24 07:52:54;;;;;;;25.35;7.97;;;;;;;27.27;65.11;100938.94;5029867;28;20029;-81
2022/08/24 07:55:19;;;;;;;25.08;7.85;;;;;;;27.21;65.50;100972.91;5010340;28;20034;-81
2022/08/24 07:57:45;;;;;;;21.80;7.75;;;;;;;27.09;65.85;100956.97;5011858;28;20404;-81
2022/08/24 08:00:13;;;;;;;30.88;8.13;;;;;;;27.34;65.37;100991.56;4999228;28;20132;-82
2022/08/24 08:02:41;;;;;;;27.42;8.27;;;;;;;27.41;65.04;100995.94;5023323;28;20022;-82
2022/08/24 08:05:08;;;;;;;30.17;8.05;;;;;;;27.38;64.89;100988.84;5020708;28;20044;-81
2022/08/24 08:07:40;;;;;;;19.92;7.35;;;;;;;27.27;65.20;100972.00;5008792;28;20096;-82
2022/08/24 08:10:06;;;;;;;27.40;7.72;;;;;;;26.96;65.40;100899.03;5006445;28;20095;-84
2022/08/24 08:12:52;;;;;;;29.77;8.85;;;;;;;26.68;64.96;100845.78;4992227;28;20030;-83
2022/08/24 08:15:25;;;;;;;26.10;8.68;;;;;;;26.79;65.09;100875.13;5005848;28;20030;-82
2022/08/24 08:18:06;;;;;;;26.55;7.95;;;;;;;27.37;64.79;100979.03;5028963;28;20709;-83
2022/08/24 08:20:37;;;;;;;34.63;8.55;;;;;;;26.89;64.64;100890.19;5024741;28;20096;-83
2022/08/24 08:25:53;;;;;;;28.30;7.85;;;;;;;27.24;65.08;100937.16;5005252;28;20064;-85
2022/08/24 08:28:32;;;;;;;24.52;7.40;;;;;;;26.63;65.57;100836.00;4996603;28;20044;-86
2022/08/24 08:31:20;;;;;;;35.65;8.63;;;;;;;26.87;65.50;100867.00;5002723;28;20074;-86
2022/08/24 08:33:46;;;;;;;25.90;7.50;;;;;;;26.58;65.59;100818.19;5021547;28;20034;-82
2022/08/24 08:36:38;;;;;;;;;;;;;;;;;;;;;
2022/08/24 08:39:24;;;;;;;32.95;7.65;;;;;;;26.35;66.36;100759.53;5006786;28;20403;-85
2022/08/24 08:42:03;;;;;;;35.70;7.72;;;;;;;26.71;65.62;100764.47;5012522;28;20037;-83
2022/08/24 08:45:03;;;;;;;27.92;8.07;;;;;;;27.17;65.13;100809.44;5025050;28;20034;-83
2022/08/24 08:47:43;;;;;;;34.83;8.23;;;;;;;27.37;64.42;100809.19;4998070;28;20099;-82
2022/08/24 08:50:20;;;;;;;37.80;7.57;;;;;;;27.28;64.38;100836.13;5000165;28;20069;-83
2022/08/24 08:53:30;;;;;;;29.92;6.82;;;;;;;27.25;65.12;100884.44;5008872;28;20022;-84
2022/08/24 08:56:24;;;;;;;20.95;7.65;;;;;;;27.26;64.96;100942.50;5002439;28;20034;-83
2022/08/24 08:59:00;;;;;;;23.95;7.65;;;;;;;27.37;64.23;100968.31;5014190;28;20523;-84
2022/08/24 09:02:14;;;;;;;30.63;7.47;;;;;;;27.42;64.26;100949.47;4998139;28;20108;-83
2022/08/24 09:05:03;;;;;;;28.75;8.25;;;;;;;27.29;64.77;100935.31;5005168;28;20034;-82
2022/08/24 09:07:29;;;;;;;30.13;7.47;;;;;;;27.20;64.50;100924.69;5010269;28;20034;-83
2022/08/24 09:10:18;;;;;;;26.88;7.35;;;;;;;27.14;64.44;100917.59;5002731;28;20546;-84
2022/08/24 09:12:52;;;;;;;30.92;7.70;;;;;;;27.33;64.17;100937.06;5008461;28;20033;-83
2022/08/24 09:15:43;;;;;;;27.83;7.30;;;;;;;27.13;64.47;100912.25;5011595;28;20462;-83
2022/08/24 09:18:28;;;;;;;25.88;7.00;;;;;;;27.37;64.48;100946.84;5009313;28;20117;-85
2022/08/24 09:21:18;;;;;;;23.45;7.00;;;;;;;27.29;64.09;100934.44;5007535;28;20038;-82
2022/08/24 09:23:52;;;;;;;29.95;7.13;;;;;;;27.29;64.11;100954.09;5012894;28;20037;-83
2022/08/24 09:26:26;;;;;;;28.85;7.05;;;;;;;27.12;63.80;100924.78;5004310;28;20519;-82
2022/08/24 09:29:04;;;;;;;30.80;7.72;;;;;;;27.35;64.19;100962.06;5013584;28;20109;-83
2022/08/24 09:32:02;;;;;;;28.58;6.85;;;;;;;27.38;63.86;100974.53;5019458;28;20503;-82
2022/08/24 09:34:34;;;;;;;16.42;6.35;;;;;;;27.36;64.19;100969.19;5004591;28;20034;-81
2022/08/24 09:37:17;;;;;;;21.75;6.82;;;;;;;27.43;64.04;100980.72;5009971;28;20111;-82
2022/08/24 09:39:58;;;;;;;18.08;6.47;;;;;;;27.46;64.19;100982.50;5012156;28;20026;-81
2022/08/24 09:42:38;;;;;;;19.73;6.00;;;;;;;27.38;64.10;100980.78;5012955;28;20091;-81
2022/08/24 09:45:25;;;;;;;22.30;6.35;;;;;;;27.24;63.82;100955.03;5009142;28;20500;-84
2022/08/24 09:48:08;;;;;;;27.83;6.65;;;;;;;27.41;64.09;100988.81;4994632;28;20041;-82
2022/08/24 09:50:59;;;;;;;18.92;6.45;;;;;;;27.42;63.78;100985.22;5013694;28;20641;-83
2022/08/24 09:53:59;;;;;;;18.95;6.05;;;;;;;27.44;63.82;100982.53;5001707;28;20121;-81
2022/08/24 09:56:47;;;;;;;20.23;6.30;;;;;;;27.39;64.28;100977.22;5005743;28;20038;-83
2022/08/24 10:00:10;;;;;;;;;;;;;;;;;;;;;
2022/08/24 10:02:58;;;;;;;18.60;6.57;;;;;;;26.90;63.99;100894.66;5002025;28;20046;-83
2022/08/24 10:05:54;;;;;;;;;;;;;;;27.41;63.90;100980.78;5000560;28;20080;-82
2022/08/24 10:08:51;;;;;;;20.13;6.68;;;;;;;27.39;64.05;100982.56;5026933;28;19920;-84
2022/08/24 10:12:20;;;;;;;17.60;6.30;;;;;;;26.85;63.98;100903.66;5020903;28;20037;-84
2022/08/24 10:15:09;;;;;;;20.30;6.63;;;;;;;27.37;64.06;100997.81;4999586;28;20504;-83
2022/08/24 10:18:16;;;;;;;18.58;6.50;;;;;;;27.38;64.16;100991.50;5003452;28;20606;-82
2022/08/24 10:21:07;;;;;;;20.33;6.40;;;;;;;27.39;63.86;100995.09;4979346;28;20070;-84
2022/08/24 10:24:24;;;;;;;18.92;6.60;;;;;;;27.42;63.98;100981.66;4966881;28;20031;-83
2022/08/24 10:27:37;;;;;;;18.50;6.28;;;;;;;27.38;64.04;100974.53;4970114;28;20102;-82
2022/08/24 10:33:31;;;;;;;31.45;7.00;;;;;;;27.33;64.79;100965.69;4962067;28;20466;-83
2022/08/24 10:36:34;;;;;;;25.00;7.15;;;;;;;27.33;64.67;100963.88;4947998;28;20494;-82
2022/08/24 10:39:42;;;;;;;24.92;7.00;;;;;;;27.32;64.57;100955.84;4970371;28;20039;-82
2022/08/24 10:45:52;;;;;;;24.52;6.75;;;;;;;27.33;64.09;100947.78;4970487;28;20145;-82
2022/08/24 10:48:41;;;;;;;32.97;7.78;;;;;;;27.28;64.99;100944.25;4971521;28;20058;-83
2022/08/24 10:51:18;;;;;;;30.17;7.40;;;;;;;27.17;64.88;100912.19;4959517;28;20065;-81
2022/08/24 10:53:59;;;;;;;43.92;8.30;;;;;;;27.20;65.16;100932.72;4958276;28;20118;-81
2022/08/24 10:56:58;;;;;;;29.45;7.32;;;;;;;27.24;65.42;100922.88;4962653;28;20111;-84
2022/08/24 10:59:39;;;;;;;38.85;8.40;;;;;;;27.28;65.22;100920.13;4969801;28;20481;-84
2022/08/24 11:02:39;;;;;;;56.58;10.48;;;;;;;27.36;66.19;100899.47;4960604;28;20062;-83
2022/08/24 11:05:29;;;;;;;61.30;10.98;;;;;;;27.26;66.41;100896.91;4948662;28;20394;-85
2022/08/24 11:08:12;;;;;;;52.53;8.88;;;;;;;27.22;65.90;100890.72;4908036;29;20095;-83
2022/08/24 11:10:56;;;;;;;44.83;8.77;;;;;;;26.91;66.00;100832.09;4915912;29;20039;-81
2022/08/24 11:13:58;;;;;;;50.30;8.90;;;;;;;27.27;65.68;100891.56;4929389;29;20040;-81
2022/08/24 11:19:41;;;;;;;32.72;7.82;;;;;;;27.35;65.09;100865.53;4962226;28;20585;-81
2022/08/24 11:22:41;;;;;;;36.20;8.18;;;;;;;27.34;65.18;100854.81;5000207;28;20030;-83
2022/08/24 11:25:30;;;;;;;30.33;7.75;;;;;;;27.01;64.68;100800.72;4977567;28;20514;-81
2022/08/24 11:28:22;;;;;;;43.50;8.77;;;;;;;26.77;64.91;100751.00;4984270;28;20022;-82
2022/08/24 11:30:48;;;;;;;41.72;8.85;;;;;;;26.81;64.74;100753.59;5008695;28;20088;-81
2022/08/24 11:33:34;;;;;;;40.70;8.43;;;;;;;27.33;64.65;100845.00;4991557;28;20101;-80
2022/08/24 11:36:02;;;;;;;34.38;8.82;;;;;;;27.29;65.03;100840.59;4979934;28;20026;-82
2022/08/24 11:38:31;;;;;;;40.60;8.32;;;;;;;27.10;65.04;100803.25;4966877;28;20034;-80
2022/08/24 11:41:19;;;;;;;35.83;7.88;;;;;;;27.31;64.78;100814.63;4988785;28;20085;-83
2022/08/24 11:44:24;;;;;;;33.03;8.38;;;;;;;27.33;64.80;100815.50;4973054;28;20058;-81
2022/08/24 11:47:22;;;;;;;36.20;8.27;;;;;;;27.06;64.63;100776.53;4986508;28;20488;-80
2022/08/24 11:50:45;;;;;;;35.42;7.75;;;;;;;26.97;64.67;100777.53;4997755;28;20031;-83
2022/08/24 11:59:17;;;;;;;28.45;7.38;;;;;;;27.35;64.39;100827.09;5037197;28;20444;-81
2022/08/24 12:01:59;;;;;;;29.15;7.07;;;;;;;27.37;64.50;100833.31;5034839;28;20033;-80
2022/08/24 12:04:52;;;;;;;26.75;6.95;;;;;;;26.79;63.97;100735.78;5029424;28;20021;-81
2022/08/24 12:08:12;;;;;;;27.73;7.25;;;;;;;27.40;64.13;100852.91;5016439;28;20032;-82
2022/08/24 12:11:13;;;;;;;;;;;;;;;;;;;;;
2022/08/24 12:14:24;;;;;;;28.80;7.28;;;;;;;27.20;64.10;100838.88;5040288;28;20030;-81
2022/08/24 12:17:34;;;;;;;24.15;6.43;;;;;;;27.38;63.94;100873.50;5017816;28;20028;-82
2022/08/24 12:20:31;;;;;;;25.23;6.63;;;;;;;27.41;63.74;100892.25;5001188;28;20052;-80
2022/08/24 12:23:27;;;;;;;22.90;6.40;;;;;;;27.46;63.27;100899.34;5011673;28;20044;-80
2022/08/24 12:26:03;;;;;;;19.35;6.20;;;;;;;27.25;63.40;100868.34;5008738;28;20523;-81
2022/08/24 12:28:54;;;;;;;18.17;5.83;;;;;;;26.86;63.42;100807.16;5032193;28;20017;-80
2022/08/24 12:31:29;;;;;;;22.88;6.68;;;;;;;27.36;63.33;100886.06;5023914;28;20068;-81